Pitkin, Colorado
Current Conditions -  °F | °C
As of 1:25 PM on Friday 28 Nov 2014 (Local Time) from KMYP Reporting Station
Clear Clear  
Wind Chill: 18°   Ceiling: Unl
Heat Index: 34°   Visibility: 10mi
Dew Point:   Wind: 43mph
Humidity: 28%   Direction: 260°W
Pressure: 30.36"   Gusts: 53mph
Location:  38.61°N, 106.52°W
Report Text: KMYP 282025Z AUTO 26037G46KT 10SM CLR 01/M16 A3036 RMK AO2
Loading
Personal Weather Stations






























Interactive Weather Map New forecast layout! Learn more

10-Day Weather Forecast

Advertisements
Track Severe Weather on mobile